sensor_id;sensor_type;location;lat;lon;timestamp;pressure;altitude;pressure_sealevel;temperature;humidity
70971;BME280;58632;51.718;19.446;2023-02-17T00:00:34;99951.35;;;1.76;100.00
70971;BME280;58632;51.718;19.446;2023-02-17T00:03:17;99950.73;;;1.82;100.00
70971;BME280;58632;51.718;19.446;2023-02-17T00:05:43;99951.86;;;1.88;100.00
70971;BME280;58632;51.718;19.446;2023-02-17T00:08:10;99949.59;;;1.95;100.00
70971;BME280;58632;51.718;19.446;2023-02-17T00:10:35;99950.98;;;2.01;100.00
70971;BME280;58632;51.718;19.446;2023-02-17T00:13:01;99947.00;;;2.05;100.00
70971;BME280;58632;51.718;19.446;2023-02-17T00:15:26;99946.63;;;2.06;100.00
70971;BME280;58632;51.718;19.446;2023-02-17T00:17:52;99946.71;;;2.05;100.00
70971;BME280;58632;51.718;19.446;2023-02-17T00:20:17;99946.00;;;2.03;100.00
70971;BME280;58632;51.718;19.446;2023-02-17T00:22:43;99943.98;;;2.00;100.00
70971;BME280;58632;51.718;19.446;2023-02-17T00:25:09;99939.39;;;1.96;100.00
70971;BME280;58632;51.718;19.446;2023-02-17T00:27:34;99935.02;;;1.91;100.00
70971;BME280;58632;51.718;19.446;2023-02-17T00:30:00;99938.08;;;1.88;100.00
70971;BME280;58632;51.718;19.446;2023-02-17T00:32:26;99940.23;;;1.85;100.00
70971;BME280;58632;51.718;19.446;2023-02-17T00:34:51;99939.78;;;1.83;100.00
70971;BME280;58632;51.718;19.446;2023-02-17T00:37:20;99940.15;;;1.82;100.00
70971;BME280;58632;51.718;19.446;2023-02-17T00:39:46;99938.70;;;1.82;100.00
70971;BME280;58632;51.718;19.446;2023-02-17T00:42:11;99934.80;;;1.82;100.00
70971;BME280;58632;51.718;19.446;2023-02-17T00:44:37;99931.81;;;1.78;100.00
70971;BME280;58632;51.718;19.446;2023-02-17T00:47:02;99925.69;;;1.76;100.00
70971;BME280;58632;51.718;19.446;2023-02-17T00:49:28;99923.30;;;1.73;100.00
70971;BME280;58632;51.718;19.446;2023-02-17T00:51:54;99922.86;;;1.72;100.00
70971;BME280;58632;51.718;19.446;2023-02-17T00:54:19;99924.67;;;1.69;100.00
70971;BME280;58632;51.718;19.446;2023-02-17T00:56:45;99927.48;;;1.69;100.00
70971;BME280;58632;51.718;19.446;2023-02-17T00:59:11;99932.89;;;1.69;100.00
70971;BME280;58632;51.718;19.446;2023-02-17T01:01:37;99935.75;;;1.70;100.00
70971;BME280;58632;51.718;19.446;2023-02-17T01:04:02;99937.48;;;1.70;100.00
70971;BME280;58632;51.718;19.446;2023-02-17T01:06:32;99937.59;;;1.68;100.00
70971;BME280;58632;51.718;19.446;2023-02-17T01:08:58;99932.98;;;1.68;100.00
70971;BME280;58632;51.718;19.446;2023-02-17T01:11:25;99933.09;;;1.66;100.00
70971;BME280;58632;51.718;19.446;2023-02-17T01:13:51;99932.22;;;1.65;100.00
70971;BME280;58632;51.718;19.446;2023-02-17T01:16:18;99926.90;;;1.61;100.00
70971;BME280;58632;51.718;19.446;2023-02-17T01:18:43;99924.54;;;1.58;100.00
70971;BME280;58632;51.718;19.446;2023-02-17T01:21:19;99929.50;;;1.57;100.00
70971;BME280;58632;51.718;19.446;2023-02-17T01:23:46;99929.54;;;1.53;100.00
70971;BME280;58632;51.718;19.446;2023-02-17T01:26:13;99929.02;;;1.50;100.00
70971;BME280;58632;51.718;19.446;2023-02-17T01:28:39;99921.58;;;1.49;100.00
70971;BME280;58632;51.718;19.446;2023-02-17T01:31:08;99919.26;;;1.49;100.00
70971;BME280;58632;51.718;19.446;2023-02-17T01:33:34;99918.28;;;1.51;100.00
70971;BME280;58632;51.718;19.446;2023-02-17T01:36:00;99910.86;;;1.54;100.00
70971;BME280;58632;51.718;19.446;2023-02-17T01:38:26;99908.95;;;1.58;100.00
70971;BME280;58632;51.718;19.446;2023-02-17T01:40:52;99904.29;;;1.62;100.00
70971;BME280;58632;51.718;19.446;2023-02-17T01:43:19;99900.15;;;1.66;100.00
70971;BME280;58632;51.718;19.446;2023-02-17T01:45:51;99899.68;;;1.69;100.00
70971;BME280;58632;51.718;19.446;2023-02-17T01:48:26;99896.14;;;1.74;100.00
70971;BME280;58632;51.718;19.446;2023-02-17T01:50:53;99895.20;;;1.78;100.00
70971;BME280;58632;51.718;19.446;2023-02-17T01:53:21;99895.76;;;1.80;100.00
70971;BME280;58632;51.718;19.446;2023-02-17T01:55:48;99891.55;;;1.83;100.00
70971;BME280;58632;51.718;19.446;2023-02-17T01:58:15;99884.17;;;1.86;100.00
70971;BME280;58632;51.718;19.446;2023-02-17T02:00:42;99886.30;;;1.89;100.00
70971;BME280;58632;51.718;19.446;2023-02-17T02:03:08;99889.67;;;1.94;100.00
70971;BME280;58632;51.718;19.446;2023-02-17T02:05:34;99883.21;;;2.00;100.00
70971;BME280;58632;51.718;19.446;2023-02-17T02:08:00;99881.84;;;2.05;100.00
70971;BME280;58632;51.718;19.446;2023-02-17T02:10:25;99882.14;;;2.11;100.00
70971;BME280;58632;51.718;19.446;2023-02-17T02:12:51;99877.52;;;2.20;100.00
70971;BME280;58632;51.718;19.446;2023-02-17T02:15:18;99867.40;;;2.27;100.00
70971;BME280;58632;51.718;19.446;2023-02-17T02:17:48;99863.41;;;2.33;100.00
70971;BME280;58632;51.718;19.446;2023-02-17T02:33:58;99832.38;;;2.51;100.00
70971;BME280;58632;51.718;19.446;2023-02-17T02:36:26;99830.11;;;2.53;100.00
70971;BME280;58632;51.718;19.446;2023-02-17T02:38:56;99824.39;;;2.56;100.00
70971;BME280;58632;51.718;19.446;2023-02-17T02:41:24;99824.45;;;2.60;100.00
70971;BME280;58632;51.718;19.446;2023-02-17T02:43:51;99821.38;;;2.64;100.00
70971;BME280;58632;51.718;19.446;2023-02-17T02:46:17;99813.53;;;2.70;100.00
70971;BME280;58632;51.718;19.446;2023-02-17T02:48:42;99818.03;;;2.75;100.00
70971;BME280;58632;51.718;19.446;2023-02-17T02:51:11;99814.30;;;2.76;100.00
70971;BME280;58632;51.718;19.446;2023-02-17T02:56:29;99812.46;;;2.77;100.00
70971;BME280;58632;51.718;19.446;2023-02-17T03:01:42;99818.26;;;2.87;100.00
70971;BME280;58632;51.718;19.446;2023-02-17T03:04:29;99825.66;;;2.90;100.00
70971;BME280;58632;51.718;19.446;2023-02-17T03:07:06;99824.95;;;2.90;100.00
70971;BME280;58632;51.718;19.446;2023-02-17T03:09:33;99828.55;;;2.89;100.00
70971;BME280;58632;51.718;19.446;2023-02-17T03:11:58;99832.70;;;2.91;100.00
70971;BME280;58632;51.718;19.446;2023-02-17T03:14:24;99833.67;;;2.92;100.00
70971;BME280;58632;51.718;19.446;2023-02-17T03:16:51;99827.98;;;2.95;100.00
70971;BME280;58632;51.718;19.446;2023-02-17T03:19:18;99828.10;;;3.00;100.00
70971;BME280;58632;51.718;19.446;2023-02-17T03:24:22;99826.21;;;3.03;100.00
70971;BME280;58632;51.718;19.446;2023-02-17T03:26:48;99829.13;;;3.06;100.00
70971;BME280;58632;51.718;19.446;2023-02-17T03:29:14;99830.32;;;3.10;100.00
70971;BME280;58632;51.718;19.446;2023-02-17T03:31:39;99831.84;;;3.13;100.00
70971;BME280;58632;51.718;19.446;2023-02-17T03:34:05;99829.01;;;3.16;100.00
70971;BME280;58632;51.718;19.446;2023-02-17T03:36:31;99830.37;;;3.17;100.00
70971;BME280;58632;51.718;19.446;2023-02-17T03:38:56;99833.55;;;3.16;100.00
70971;BME280;58632;51.718;19.446;2023-02-17T03:41:22;99829.45;;;3.15;100.00
70971;BME280;58632;51.718;19.446;2023-02-17T03:43:48;99825.07;;;3.15;100.00
70971;BME280;58632;51.718;19.446;2023-02-17T03:46:16;99821.66;;;3.13;100.00
70971;BME280;58632;51.718;19.446;2023-02-17T03:48:41;99816.46;;;3.10;100.00
70971;BME280;58632;51.718;19.446;2023-02-17T03:51:11;99814.56;;;3.09;100.00
70971;BME280;58632;51.718;19.446;2023-02-17T03:53:38;99815.11;;;3.07;100.00
70971;BME280;58632;51.718;19.446;2023-02-17T03:56:03;99810.41;;;3.04;100.00
70971;BME280;58632;51.718;19.446;2023-02-17T03:58:29;99810.14;;;3.04;100.00
70971;BME280;58632;51.718;19.446;2023-02-17T04:00:55;99804.34;;;3.05;100.00
70971;BME280;58632;51.718;19.446;2023-02-17T04:03:20;99804.61;;;3.05;100.00
70971;BME280;58632;51.718;19.446;2023-02-17T04:05:46;99803.15;;;3.04;100.00
70971;BME280;58632;51.718;19.446;2023-02-17T04:08:11;99806.02;;;3.06;100.00
70971;BME280;58632;51.718;19.446;2023-02-17T04:10:37;99803.64;;;3.11;100.00
70971;BME280;58632;51.718;19.446;2023-02-17T04:13:02;99798.83;;;3.11;100.00
70971;BME280;58632;51.718;19.446;2023-02-17T04:15:28;99798.02;;;3.13;100.00
70971;BME280;58632;51.718;19.446;2023-02-17T04:17:54;99795.63;;;3.15;100.00
70971;BME280;58632;51.718;19.446;2023-02-17T04:20:19;99791.30;;;3.13;100.00
70971;BME280;58632;51.718;19.446;2023-02-17T04:22:45;99794.59;;;3.14;100.00
70971;BME280;58632;51.718;19.446;2023-02-17T04:25:10;99791.58;;;3.13;100.00
70971;BME280;58632;51.718;19.446;2023-02-17T04:27:36;99790.27;;;3.14;100.00
70971;BME280;58632;51.718;19.446;2023-02-17T04:30:02;99790.39;;;3.12;100.00
70971;BME280;58632;51.718;19.446;2023-02-17T04:32:28;99788.92;;;3.14;100.00
70971;BME280;58632;51.718;19.446;2023-02-17T04:34:54;99781.34;;;3.15;100.00
70971;BME280;58632;51.718;19.446;2023-02-17T04:37:19;99781.49;;;3.19;100.00
70971;BME280;58632;51.718;19.446;2023-02-17T04:39:45;99775.65;;;3.23;100.00
70971;BME280;58632;51.718;19.446;2023-02-17T04:42:10;99774.34;;;3.26;100.00
70971;BME280;58632;51.718;19.446;2023-02-17T04:44:36;99767.78;;;3.28;100.00
70971;BME280;58632;51.718;19.446;2023-02-17T04:47:01;99768.44;;;3.29;100.00
70971;BME280;58632;51.718;19.446;2023-02-17T04:49:27;99769.09;;;3.28;100.00
70971;BME280;58632;51.718;19.446;2023-02-17T04:51:52;99768.34;;;3.25;100.00
70971;BME280;58632;51.718;19.446;2023-02-17T04:54:18;99769.70;;;3.24;100.00
70971;BME280;58632;51.718;19.446;2023-02-17T04:56:43;99766.92;;;3.25;100.00
70971;BME280;58632;51.718;19.446;2023-02-17T04:59:09;99761.88;;;3.28;100.00
70971;BME280;58632;51.718;19.446;2023-02-17T05:01:35;99756.79;;;3.32;100.00
70971;BME280;58632;51.718;19.446;2023-02-17T05:04:00;99754.84;;;3.33;100.00
70971;BME280;58632;51.718;19.446;2023-02-17T05:06:26;99750.02;;;3.33;100.00
70971;BME280;58632;51.718;19.446;2023-02-17T05:08:51;99749.96;;;3.34;100.00
70971;BME280;58632;51.718;19.446;2023-02-17T05:11:18;99745.42;;;3.34;100.00
70971;BME280;58632;51.718;19.446;2023-02-17T05:13:43;99745.15;;;3.33;100.00
70971;BME280;58632;51.718;19.446;2023-02-17T05:16:09;99746.50;;;3.37;100.00
70971;BME280;58632;51.718;19.446;2023-02-17T05:18:34;99744.21;;;3.42;100.00
70971;BME280;58632;51.718;19.446;2023-02-17T05:21:00;99740.67;;;3.44;100.00
70971;BME280;58632;51.718;19.446;2023-02-17T05:23:26;99735.26;;;3.44;100.00
70971;BME280;58632;51.718;19.446;2023-02-17T05:25:51;99737.54;;;3.47;100.00
70971;BME280;58632;51.718;19.446;2023-02-17T05:28:17;99738.11;;;3.49;100.00
70971;BME280;58632;51.718;19.446;2023-02-17T05:30:42;99729.13;;;3.52;100.00
70971;BME280;58632;51.718;19.446;2023-02-17T05:33:08;99726.02;;;3.52;100.00
70971;BME280;58632;51.718;19.446;2023-02-17T05:35:34;99726.52;;;3.50;100.00
70971;BME280;58632;51.718;19.446;2023-02-17T05:37:59;99728.80;;;3.48;100.00
70971;BME280;58632;51.718;19.446;2023-02-17T05:40:25;99736.71;;;3.46;100.00
70971;BME280;58632;51.718;19.446;2023-02-17T05:42:51;99738.63;;;3.41;100.00
70971;BME280;58632;51.718;19.446;2023-02-17T05:45:16;99737.92;;;3.38;100.00
70971;BME280;58632;51.718;19.446;2023-02-17T05:47:42;99733.40;;;3.34;100.00
70971;BME280;58632;51.718;19.446;2023-02-17T05:50:10;99731.41;;;3.31;100.00
70971;BME280;58632;51.718;19.446;2023-02-17T05:52:35;99734.11;;;3.28;100.00
70971;BME280;58632;51.718;19.446;2023-02-17T05:55:01;99731.48;;;3.25;100.00
70971;BME280;58632;51.718;19.446;2023-02-17T05:57:29;99726.14;;;3.24;100.00
70971;BME280;58632;51.718;19.446;2023-02-17T05:59:54;99721.41;;;3.24;100.00
70971;BME280;58632;51.718;19.446;2023-02-17T06:02:20;99717.40;;;3.27;100.00
70971;BME280;58632;51.718;19.446;2023-02-17T06:04:46;99718.95;;;3.32;100.00
70971;BME280;58632;51.718;19.446;2023-02-17T06:07:12;99711.73;;;3.39;100.00
70971;BME280;58632;51.718;19.446;2023-02-17T06:09:37;99711.76;;;3.46;100.00
70971;BME280;58632;51.718;19.446;2023-02-17T06:12:03;99711.63;;;3.51;100.00
70971;BME280;58632;51.718;19.446;2023-02-17T06:14:28;99719.35;;;3.56;100.00
70971;BME280;58632;51.718;19.446;2023-02-17T06:16:54;99718.16;;;3.58;100.00
70971;BME280;58632;51.718;19.446;2023-02-17T06:19:21;99719.98;;;3.61;100.00
70971;BME280;58632;51.718;19.446;2023-02-17T06:21:47;99719.16;;;3.64;100.00
70971;BME280;58632;51.718;19.446;2023-02-17T06:24:12;99708.58;;;3.69;100.00
70971;BME280;58632;51.718;19.446;2023-02-17T06:26:38;99703.30;;;3.72;100.00
70971;BME280;58632;51.718;19.446;2023-02-17T06:29:04;99705.39;;;3.76;100.00
70971;BME280;58632;51.718;19.446;2023-02-17T06:31:30;99701.42;;;3.81;100.00
70971;BME280;58632;51.718;19.446;2023-02-17T06:33:55;99701.83;;;3.86;100.00
70971;BME280;58632;51.718;19.446;2023-02-17T06:36:21;99702.99;;;3.92;100.00
70971;BME280;58632;51.718;19.446;2023-02-17T06:38:47;99699.70;;;3.98;100.00
70971;BME280;58632;51.718;19.446;2023-02-17T06:41:12;99701.05;;;4.08;100.00
70971;BME280;58632;51.718;19.446;2023-02-17T06:43:38;99703.49;;;4.16;100.00
70971;BME280;58632;51.718;19.446;2023-02-17T06:46:04;99700.30;;;4.22;100.00
70971;BME280;58632;51.718;19.446;2023-02-17T06:48:29;99699.47;;;4.27;100.00
70971;BME280;58632;51.718;19.446;2023-02-17T06:50:58;99697.86;;;4.30;100.00
70971;BME280;58632;51.718;19.446;2023-02-17T06:53:23;99698.65;;;4.35;100.00
70971;BME280;58632;51.718;19.446;2023-02-17T06:55:49;99700.17;;;4.42;100.00
70971;BME280;58632;51.718;19.446;2023-02-17T06:58:14;99697.64;;;4.47;100.00
70971;BME280;58632;51.718;19.446;2023-02-17T07:00:40;99696.41;;;4.49;100.00
70971;BME280;58632;51.718;19.446;2023-02-17T07:03:06;99690.91;;;4.53;100.00
70971;BME280;58632;51.718;19.446;2023-02-17T07:05:35;99686.16;;;4.56;100.00
70971;BME280;58632;51.718;19.446;2023-02-17T07:08:00;99683.76;;;4.58;100.00
70971;BME280;58632;51.718;19.446;2023-02-17T07:10:26;99688.33;;;4.63;100.00
70971;BME280;58632;51.718;19.446;2023-02-17T07:12:52;99687.73;;;4.67;100.00
70971;BME280;58632;51.718;19.446;2023-02-17T07:15:17;99683.07;;;4.70;100.00
70971;BME280;58632;51.718;19.446;2023-02-17T07:17:43;99680.08;;;4.76;100.00
70971;BME280;58632;51.718;19.446;2023-02-17T07:20:09;99680.72;;;4.82;100.00
70971;BME280;58632;51.718;19.446;2023-02-17T07:22:34;99677.85;;;4.87;100.00
70971;BME280;58632;51.718;19.446;2023-02-17T07:25:00;99682.02;;;4.94;100.00
70971;BME280;58632;51.718;19.446;2023-02-17T07:27:26;99681.27;;;4.99;100.00
70971;BME280;58632;51.718;19.446;2023-02-17T07:29:52;99681.30;;;5.00;100.00
70971;BME280;58632;51.718;19.446;2023-02-17T07:32:17;99678.98;;;5.03;100.00
70971;BME280;58632;51.718;19.446;2023-02-17T07:34:42;99677.98;;;5.05;100.00
70971;BME280;58632;51.718;19.446;2023-02-17T07:37:08;99675.70;;;5.05;100.00
70971;BME280;58632;51.718;19.446;2023-02-17T07:39:34;99677.09;;;5.07;100.00
70971;BME280;58632;51.718;19.446;2023-02-17T07:41:59;99682.94;;;5.10;100.00
70971;BME280;58632;51.718;19.446;2023-02-17T07:44:25;99684.33;;;5.12;100.00
70971;BME280;58632;51.718;19.446;2023-02-17T07:46:52;99680.44;;;5.15;100.00
70971;BME280;58632;51.718;19.446;2023-02-17T07:49:18;99678.58;;;5.21;100.00
70971;BME280;58632;51.718;19.446;2023-02-17T07:51:43;99677.46;;;5.28;100.00
70971;BME280;58632;51.718;19.446;2023-02-17T07:54:09;99676.38;;;5.33;100.00
70971;BME280;58632;51.718;19.446;2023-02-17T07:56:35;99672.96;;;5.41;100.00
70971;BME280;58632;51.718;19.446;2023-02-17T07:59:00;99672.66;;;5.48;100.00
70971;BME280;58632;51.718;19.446;2023-02-17T08:01:26;99665.93;;;5.52;100.00
70971;BME280;58632;51.718;19.446;2023-02-17T08:03:52;99668.84;;;5.55;100.00
70971;BME280;58632;51.718;19.446;2023-02-17T08:06:18;99670.44;;;5.58;100.00
70971;BME280;58632;51.718;19.446;2023-02-17T08:08:44;99669.67;;;5.61;100.00
70971;BME280;58632;51.718;19.446;2023-02-17T08:11:29;99669.78;;;5.64;100.00
70971;BME280;58632;51.718;19.446;2023-02-17T08:14:14;99668.39;;;5.67;100.00
70971;BME280;58632;51.718;19.446;2023-02-17T08:16:39;99664.45;;;5.69;100.00
70971;BME280;58632;51.718;19.446;2023-02-17T08:19:05;99665.30;;;5.76;100.00
70971;BME280;58632;51.718;19.446;2023-02-17T08:21:30;99665.16;;;5.81;100.00
70971;BME280;58632;51.718;19.446;2023-02-17T08:23:56;99663.42;;;5.85;100.00
70971;BME280;58632;51.718;19.446;2023-02-17T08:26:22;99669.77;;;5.89;100.00
70971;BME280;58632;51.718;19.446;2023-02-17T08:28:47;99664.63;;;5.93;100.00
70971;BME280;58632;51.718;19.446;2023-02-17T08:31:17;99656.81;;;6.01;100.00
70971;BME280;58632;51.718;19.446;2023-02-17T08:33:42;99651.84;;;6.10;100.00
70971;BME280;58632;51.718;19.446;2023-02-17T08:36:08;99650.90;;;6.22;100.00
70971;BME280;58632;51.718;19.446;2023-02-17T08:38:34;99647.26;;;6.35;100.00
70971;BME280;58632;51.718;19.446;2023-02-17T08:41:00;99645.31;;;6.44;100.00
70971;BME280;58632;51.718;19.446;2023-02-17T08:43:25;99642.20;;;6.51;100.00
70971;BME280;58632;51.718;19.446;2023-02-17T08:45:51;99646.27;;;6.55;100.00
70971;BME280;58632;51.718;19.446;2023-02-17T08:48:16;99648.79;;;6.61;100.00
70971;BME280;58632;51.718;19.446;2023-02-17T08:50:42;99652.17;;;6.63;100.00
70971;BME280;58632;51.718;19.446;2023-02-17T08:53:07;99651.31;;;6.60;100.00
70971;BME280;58632;51.718;19.446;2023-02-17T08:55:33;99649.47;;;6.59;100.00
70971;BME280;58632;51.718;19.446;2023-02-17T08:57:59;99651.95;;;6.60;100.00
70971;BME280;58632;51.718;19.446;2023-02-17T09:00:24;99653.54;;;6.66;100.00
70971;BME280;58632;51.718;19.446;2023-02-17T09:02:50;99650.77;;;6.72;100.00
70971;BME280;58632;51.718;19.446;2023-02-17T09:05:16;99649.01;;;6.72;100.00
70971;BME280;58632;51.718;19.446;2023-02-17T09:07:42;99648.89;;;6.70;100.00
70971;BME280;58632;51.718;19.446;2023-02-17T09:10:11;99652.42;;;6.64;100.00
70971;BME280;58632;51.718;19.446;2023-02-17T09:12:36;99653.53;;;6.59;100.00
70971;BME280;58632;51.718;19.446;2023-02-17T09:15:02;99654.98;;;6.51;100.00
70971;BME280;58632;51.718;19.446;2023-02-17T09:17:27;99654.02;;;6.48;100.00
70971;BME280;58632;51.718;19.446;2023-02-17T09:19:53;99643.92;;;6.46;100.00
70971;BME280;58632;51.718;19.446;2023-02-17T09:22:19;99644.04;;;6.45;100.00
70971;BME280;58632;51.718;19.446;2023-02-17T09:24:45;99643.59;;;6.40;100.00
70971;BME280;58632;51.718;19.446;2023-02-17T09:27:10;99637.18;;;6.39;100.00
70971;BME280;58632;51.718;19.446;2023-02-17T09:29:36;99635.63;;;6.42;100.00
70971;BME280;58632;51.718;19.446;2023-02-17T09:32:06;99628.90;;;6.40;100.00
70971;BME280;58632;51.718;19.446;2023-02-17T09:34:41;99624.90;;;6.31;100.00
70971;BME280;58632;51.718;19.446;2023-02-17T09:37:13;99621.98;;;6.28;100.00
70971;BME280;58632;51.718;19.446;2023-02-17T09:39:39;99616.73;;;6.27;100.00
70971;BME280;58632;51.718;19.446;2023-02-17T09:42:05;99610.98;;;6.28;100.00
70971;BME280;58632;51.718;19.446;2023-02-17T09:44:41;99607.33;;;6.32;100.00
70971;BME280;58632;51.718;19.446;2023-02-17T09:47:09;99610.08;;;6.40;100.00
70971;BME280;58632;51.718;19.446;2023-02-17T09:49:39;99614.52;;;6.41;100.00
70971;BME280;58632;51.718;19.446;2023-02-17T09:58:25;99605.62;;;6.46;100.00
70971;BME280;58632;51.718;19.446;2023-02-17T10:00:34;99596.26;;;6.44;100.00
70971;BME280;58632;51.718;19.446;2023-02-17T10:03:19;99599.48;;;6.46;100.00
70971;BME280;58632;51.718;19.446;2023-02-17T10:05:55;99595.52;;;6.45;100.00
70971;BME280;58632;51.718;19.446;2023-02-17T10:08:26;99593.03;;;6.42;100.00
70971;BME280;58632;51.718;19.446;2023-02-17T10:10:53;99585.20;;;6.41;100.00
70971;BME280;58632;51.718;19.446;2023-02-17T10:13:21;99583.08;;;6.44;100.00
70971;BME280;58632;51.718;19.446;2023-02-17T10:15:49;99572.81;;;6.49;100.00
70971;BME280;58632;51.718;19.446;2023-02-17T10:18:18;99572.50;;;6.55;100.00
70971;BME280;58632;51.718;19.446;2023-02-17T10:20:48;99560.41;;;6.64;100.00
70971;BME280;58632;51.718;19.446;2023-02-17T10:23:19;99555.79;;;6.70;100.00
70971;BME280;58632;51.718;19.446;2023-02-17T10:25:49;99550.64;;;6.74;100.00
70971;BME280;58632;51.718;19.446;2023-02-17T10:28:17;99549.73;;;6.79;100.00
70971;BME280;58632;51.718;19.446;2023-02-17T10:40:59;99533.13;;;6.90;100.00
70971;BME280;58632;51.718;19.446;2023-02-17T10:43:27;99526.00;;;6.92;100.00
70971;BME280;58632;51.718;19.446;2023-02-17T10:45:56;99522.73;;;6.92;100.00
70971;BME280;58632;51.718;19.446;2023-02-17T10:48:26;99519.38;;;6.92;100.00
70971;BME280;58632;51.718;19.446;2023-02-17T10:50:54;99514.20;;;6.92;100.00
70971;BME280;58632;51.718;19.446;2023-02-17T10:53:21;99509.67;;;6.87;100.00
70971;BME280;58632;51.718;19.446;2023-02-17T10:58:26;99498.83;;;6.90;100.00
70971;BME280;58632;51.718;19.446;2023-02-17T11:00:53;99492.88;;;6.93;100.00
70971;BME280;58632;51.718;19.446;2023-02-17T11:03:21;99489.26;;;6.92;100.00
70971;BME280;58632;51.718;19.446;2023-02-17T11:05:51;99483.73;;;6.91;100.00
70971;BME280;58632;51.718;19.446;2023-02-17T11:08:27;99473.25;;;6.92;100.00
70971;BME280;58632;51.718;19.446;2023-02-17T11:11:01;99470.26;;;6.89;100.00
70971;BME280;58632;51.718;19.446;2023-02-17T11:13:32;99460.67;;;6.85;100.00
70971;BME280;58632;51.718;19.446;2023-02-17T11:15:58;99453.45;;;6.84;100.00
70971;BME280;58632;51.718;19.446;2023-02-17T11:18:26;99450.61;;;6.80;100.00
70971;BME280;58632;51.718;19.446;2023-02-17T11:20:58;99450.09;;;6.78;100.00
70971;BME280;58632;51.718;19.446;2023-02-17T11:23:24;99442.48;;;6.77;100.00
70971;BME280;58632;51.718;19.446;2023-02-17T11:25:58;99439.52;;;6.73;100.00
70971;BME280;58632;51.718;19.446;2023-02-17T11:28:24;99433.66;;;6.70;100.00
70971;BME280;58632;51.718;19.446;2023-02-17T11:30:51;99433.44;;;6.67;100.00
70971;BME280;58632;51.718;19.446;2023-02-17T11:33:21;99429.45;;;6.66;100.00
70971;BME280;58632;51.718;19.446;2023-02-17T11:35:53;99427.05;;;6.66;100.00
70971;BME280;58632;51.718;19.446;2023-02-17T11:38:23;99423.02;;;6.66;100.00
70971;BME280;58632;51.718;19.446;2023-02-17T11:41:00;99419.44;;;6.66;100.00
70971;BME280;58632;51.718;19.446;2023-02-17T11:43:27;99413.11;;;6.64;100.00
70971;BME280;58632;51.718;19.446;2023-02-17T11:48:32;99408.30;;;6.65;100.00
70971;BME280;58632;51.718;19.446;2023-02-17T11:51:09;99401.96;;;6.66;100.00
70971;BME280;58632;51.718;19.446;2023-02-17T11:56:24;99388.30;;;6.68;100.00
70971;BME280;58632;51.718;19.446;2023-02-17T12:09:14;99350.27;;;6.73;100.00
70971;BME280;58632;51.718;19.446;2023-02-17T12:16:50;99327.77;;;6.84;100.00
70971;BME280;58632;51.718;19.446;2023-02-17T12:27:37;99310.98;;;6.98;100.00
70971;BME280;58632;51.718;19.446;2023-02-17T12:35:17;99297.65;;;6.96;100.00
70971;BME280;58632;51.718;19.446;2023-02-17T12:37:49;99288.30;;;6.97;100.00
70971;BME280;58632;51.718;19.446;2023-02-17T12:40:59;99286.73;;;6.97;100.00
70971;BME280;58632;51.718;19.446;2023-02-17T12:43:11;99278.58;;;6.94;100.00
70971;BME280;58632;51.718;19.446;2023-02-17T12:45:38;99272.68;;;6.93;100.00
70971;BME280;58632;51.718;19.446;2023-02-17T12:53:17;99263.22;;;6.86;100.00
70971;BME280;58632;51.718;19.446;2023-02-17T12:55:49;99258.83;;;6.90;100.00
70971;BME280;58632;51.718;19.446;2023-02-17T12:58:19;99251.75;;;6.89;100.00
70971;BME280;58632;51.718;19.446;2023-02-17T13:00:47;99246.73;;;6.87;100.00
70971;BME280;58632;51.718;19.446;2023-02-17T13:03:14;99243.43;;;6.85;100.00
70971;BME280;58632;51.718;19.446;2023-02-17T13:08:10;99242.92;;;6.86;100.00
70971;BME280;58632;51.718;19.446;2023-02-17T13:10:39;99240.61;;;6.86;100.00
70971;BME280;58632;51.718;19.446;2023-02-17T13:15:31;99225.13;;;6.87;100.00
70971;BME280;58632;51.718;19.446;2023-02-17T13:18:04;99227.31;;;6.87;100.00
70971;BME280;58632;51.718;19.446;2023-02-17T13:20:37;99222.11;;;6.86;100.00
70971;BME280;58632;51.718;19.446;2023-02-17T13:23:04;99215.26;;;6.91;100.00
70971;BME280;58632;51.718;19.446;2023-02-17T13:25:31;99215.48;;;6.90;100.00
70971;BME280;58632;51.718;19.446;2023-02-17T13:27:58;99209.52;;;6.87;100.00
70971;BME280;58632;51.718;19.446;2023-02-17T13:30:29;99208.90;;;6.84;100.00
70971;BME280;58632;51.718;19.446;2023-02-17T13:33:13;99204.14;;;6.85;100.00
70971;BME280;58632;51.718;19.446;2023-02-17T13:35:50;99191.08;;;6.86;100.00
70971;BME280;58632;51.718;19.446;2023-02-17T13:38:36;99187.67;;;6.88;100.00
70971;BME280;58632;51.718;19.446;2023-02-17T13:41:02;99186.63;;;6.91;100.00
70971;BME280;58632;51.718;19.446;2023-02-17T13:43:29;99186.17;;;6.91;100.00
70971;BME280;58632;51.718;19.446;2023-02-17T13:48:25;99177.30;;;6.86;100.00
70971;BME280;58632;51.718;19.446;2023-02-17T13:50:53;99175.49;;;6.87;100.00
70971;BME280;58632;51.718;19.446;2023-02-17T13:53:23;99171.66;;;6.90;100.00
70971;BME280;58632;51.718;19.446;2023-02-17T13:55:49;99165.81;;;6.91;100.00
70971;BME280;58632;51.718;19.446;2023-02-17T13:58:20;99165.37;;;6.87;100.00
70971;BME280;58632;51.718;19.446;2023-02-17T14:00:46;99165.11;;;6.86;100.00
70971;BME280;58632;51.718;19.446;2023-02-17T14:05:43;99152.70;;;6.89;100.00
70971;BME280;58632;51.718;19.446;2023-02-17T14:10:38;99142.91;;;6.92;100.00
70971;BME280;58632;51.718;19.446;2023-02-17T14:13:03;99135.92;;;6.89;100.00
70971;BME280;58632;51.718;19.446;2023-02-17T14:15:29;99134.51;;;6.85;100.00
70971;BME280;58632;51.718;19.446;2023-02-17T14:17:54;99130.06;;;6.87;100.00
70971;BME280;58632;51.718;19.446;2023-02-17T14:20:33;99128.78;;;6.86;100.00
70971;BME280;58632;51.718;19.446;2023-02-17T14:25:29;99115.11;;;6.83;100.00